ADDS METAR Data INFO
IDs: Format: Raw Decoded Include TAF

Data at: 0959 UTC 22 May 2018

KBYG 220953Z AUTO 26006KT 10SM CLR 10/06 A2999 RMK AO2 SLP115 T01000056 TSNO
KBYG 220853Z AUTO 00000KT 10SM CLR 11/06 A3000 RMK AO2 SLP119 T01060061 50004 TSNO
KBYG 220753Z AUTO 21008KT 10SM FEW060 10/07 A3001 RMK AO2 SLP121 T01000067 TSNO
KBYG 220653Z AUTO 33010KT 10SM CLR 12/08 A3000 RMK AO2 SLP113 T01220083 402330039 TSNO
KBYG 220553Z AUTO 02003KT 10SM CLR 13/08 A2999 RMK AO2 SLP108 T01330078 10211 20133 50005 TSNO
KBYG 220453Z AUTO 25008KT 10SM BKN100 16/08 A3000 RMK AO2 SLP109 T01560078 TSNO
KBYG 220353Z AUTO 25005KT 10SM CLR 14/08 A2999 RMK AO2 SLP112 T01440078 TSNO
KBYG 220253Z AUTO 28007KT 10SM BKN100 15/08 A2997 RMK AO2 SLP112 T01500083 53007 TSNO
KBYG 220153Z AUTO 33009KT 10SM CLR 18/09 A2995 RMK AO2 SLP105 T01780089 TSNO
KBYG 220053Z AUTO 34010KT 10SM CLR 19/10 A2995 RMK AO2 SLP106 T01890100 TSNO
KBYG 212353Z AUTO 35004KT 10SM CLR 22/09 A2995 RMK AO2 SLP109 60000 T02170089 10233 20211 55005 TSNO
KBYG 212253Z AUTO 31004KT 10SM CLR 22/07 A2995 RMK AO2 SLP102 T02170072 TSNO
KBYG 212153Z AUTO 33006KT 10SM CLR 21/08 A2995 RMK AO2 SLP108 T02110078 TSNO
KBYG 212053Z AUTO 33007KT 10SM CLR 21/08 A2997 RMK AO2 RAE1954 SLP113 P0000 60000 T02110078 56004 TSNO
KBYG 211953Z AUTO 17004KT 10SM -RA FEW040 FEW070 SCT090 22/06 A2997 RMK AO2 RAB38 SLP109 P0000 T02220056 TSNO
KBYG 211853Z AUTO VRB03KT 10SM SCT110 23/07 A2998 RMK AO2 SLP106 T02330067 TSNO
KBYG 211753Z AUTO 36007KT 10SM CLR 22/07 A2998 RMK AO2 SLP110 T02170067 10217 20050 55000 TSNO
KBYG 211653Z AUTO 36004KT 10SM CLR 21/07 A2998 RMK AO2 SLP109 T02060072 TSNO
KBYG 211553Z AUTO 00000KT 10SM CLR 19/07 A2998 RMK AO2 SLP110 T01890072 TSNO
KBYG 211453Z AUTO 16003KT 10SM CLR 14/07 A2998 RMK AO2 SLP118 T01440072 53007 TSNO
KBYG 211353Z AUTO 00000KT 10SM CLR 12/08 A2997 RMK AO2 SLP113 T01220078 TSNO
KBYG 211253Z AUTO 00000KT 10SM CLR 10/07 A2996 RMK AO2 SLP109 T01000072 TSNO
KBYG 211153Z AUTO 00000KT 10SM CLR 05/04 A2996 RMK AO2 SLP115 T00500044 10106 20039 55001 TSNO
KBYG 211053Z AUTO 29003KT 10SM CLR 08/06 A2995 RMK AO2 SLP108 T00830056 TSNO
KBYG 210953Z AUTO 33003KT 10SM CLR 07/06 A2996 RMK AO2 SLP111 T00670061 TSNO
KBYG 210853Z AUTO 00000KT 10SM CLR 07/06 A2996 RMK AO2 SLP112 T00670061 56012 TSNO
KBYG 210753Z AUTO 16007KT 10SM CLR 08/07 A2996 RMK AO2 SLP114 T00780067 TSNO
KBYG 210653Z AUTO 15015KT 10SM CLR 10/07 A2998 RMK AO2 SLP117 T01000072 402000050 TSNO
KBYG 210553Z AUTO 16015KT 10SM CLR 11/07 A3000 RMK AO2 SLP124 T01060072 10194 20100 58004 TSNO
KBYG 210453Z AUTO 16014KT 10SM CLR 11/07 A3000 RMK AO2 SLP128 T01110072 TSNO
KBYG 210353Z AUTO 16013KT 10SM CLR 13/07 A3002 RMK AO2 SLP134 T01280072 TSNO
KBYG 210253Z AUTO 18010KT 10SM CLR 13/07 A3001 RMK AO2 SLP135 T01330072 53002 TSNO
KBYG 210153Z AUTO 15014KT 10SM CLR 16/07 A3000 RMK AO2 SLP131 T01610072 TSNO
KBYG 210053Z AUTO 16014KT 10SM CLR 18/07 A3000 RMK AO2 SLP131 T01830067 TSNO
KBYG 202353Z AUTO 15012KT 10SM CLR 19/06 A3000 RMK AO2 SLP129 T01940061 10200 20167 56013 TSNO
KBYG 202253Z AUTO 15016G22KT 10SM CLR 19/06 A3002 RMK AO2 PK WND 16026/2157 SLP134 T01940056 TSNO